createdAt,value
2023-01-04T00:00:41.510Z,8.80
2023-01-04T00:03:08.379Z,8.80
2023-01-04T00:05:35.528Z,8.70
2023-01-04T00:08:02.123Z,8.80
2023-01-04T00:10:28.942Z,8.80
2023-01-04T00:12:55.606Z,8.80
2023-01-04T00:15:22.228Z,8.80
2023-01-04T00:17:48.769Z,8.80
2023-01-04T00:20:15.572Z,8.80
2023-01-04T00:22:42.155Z,8.80
2023-01-04T00:25:09.131Z,8.80
2023-01-04T00:27:35.727Z,8.80
2023-01-04T00:30:02.282Z,8.80
2023-01-04T00:32:28.867Z,8.70
2023-01-04T00:34:55.436Z,8.80
2023-01-04T00:37:22.050Z,8.80
2023-01-04T00:39:48.687Z,8.80
2023-01-04T00:42:15.329Z,8.80
2023-01-04T00:44:41.920Z,8.80
2023-01-04T00:47:08.579Z,8.80
2023-01-04T00:49:35.231Z,8.80
2023-01-04T00:52:02.201Z,8.80
2023-01-04T00:54:28.845Z,8.70
2023-01-04T00:56:55.457Z,8.70
2023-01-04T00:59:23.080Z,8.70
2023-01-04T01:01:51.073Z,8.70
2023-01-04T01:04:19.877Z,8.70
2023-01-04T01:06:47.332Z,8.70
2023-01-04T01:09:13.956Z,8.50
2023-01-04T01:11:41.191Z,8.50
2023-01-04T01:14:09.299Z,8.50
2023-01-04T01:16:54.283Z,8.50
2023-01-04T01:19:22.670Z,8.50
2023-01-04T01:21:49.235Z,8.40
2023-01-04T01:24:18.270Z,8.50
2023-01-04T01:26:45.202Z,8.50
2023-01-04T01:29:11.974Z,8.50
2023-01-04T01:31:39.863Z,8.50
2023-01-04T01:34:06.648Z,8.60
2023-01-04T01:36:33.797Z,8.60
2023-01-04T01:39:00.529Z,8.50
2023-01-04T01:41:30.700Z,8.60
2023-01-04T01:44:00.206Z,8.60
2023-01-04T01:46:48.741Z,8.60
2023-01-04T01:49:37.423Z,8.60
2023-01-04T01:52:09.022Z,8.50
2023-01-04T01:54:41.867Z,8.60
2023-01-04T01:57:13.556Z,8.50
2023-01-04T01:59:43.307Z,8.50
2023-01-04T02:02:11.464Z,8.50
2023-01-04T02:04:43.245Z,8.50
2023-01-04T02:07:11.885Z,8.50
2023-01-04T02:09:39.450Z,8.50
2023-01-04T02:12:10.389Z,8.40
2023-01-04T02:14:37.208Z,8.40
2023-01-04T02:17:31.203Z,8.30
2023-01-04T02:20:11.986Z,8.30
2023-01-04T02:23:02.243Z,8.30
2023-01-04T02:25:54.207Z,8.30
2023-01-04T02:28:57.958Z,8.30
2023-01-04T02:31:30.498Z,8.30
2023-01-04T02:34:05.988Z,8.20
2023-01-04T02:36:40.335Z,8.20
2023-01-04T02:39:21.252Z,8.30
2023-01-04T02:41:54.058Z,8.30
2023-01-04T02:44:53.401Z,8.20
2023-01-04T02:47:42.480Z,8.20
2023-01-04T02:50:32.686Z,8.20
2023-01-04T02:53:08.146Z,8.20
2023-01-04T02:55:59.616Z,8.20
2023-01-04T02:58:42.915Z,8.10
2023-01-04T03:01:46.370Z,8.10
2023-01-04T03:04:53.201Z,8.10
2023-01-04T03:07:47.894Z,8.10
2023-01-04T03:10:35.579Z,8.10
2023-01-04T03:13:28.668Z,8.10
2023-01-04T03:16:01.417Z,8.00
2023-01-04T03:18:30.947Z,8.00
2023-01-04T03:21:00.302Z,8.00
2023-01-04T03:23:51.993Z,7.90
2023-01-04T03:26:42.352Z,7.80
2023-01-04T03:29:54.707Z,7.90
2023-01-04T03:32:51.201Z,7.80
2023-01-04T03:35:23.607Z,7.80
2023-01-04T03:37:50.137Z,7.80
2023-01-04T03:40:49.558Z,7.70
2023-01-04T03:43:35.924Z,7.70
2023-01-04T03:47:06.013Z,7.80
2023-01-04T03:49:57.456Z,7.80
2023-01-04T03:52:27.990Z,7.80
2023-01-04T03:54:57.497Z,7.80
2023-01-04T03:57:25.663Z,7.80
2023-01-04T04:00:13.928Z,7.70
2023-01-04T04:02:41.360Z,7.70
2023-01-04T04:05:31.464Z,7.70
2023-01-04T04:08:16.858Z,7.80
2023-01-04T04:10:43.428Z,7.80
2023-01-04T04:13:10.001Z,7.60
2023-01-04T04:15:36.767Z,7.60
2023-01-04T04:18:03.348Z,7.60
2023-01-04T04:20:29.972Z,7.60
2023-01-04T04:22:56.726Z,7.60
2023-01-04T04:25:23.323Z,7.60
2023-01-04T04:27:49.996Z,7.60
2023-01-04T04:30:16.650Z,7.60
2023-01-04T04:32:43.569Z,7.60
2023-01-04T04:35:10.178Z,7.60
2023-01-04T04:37:37.164Z,7.60
2023-01-04T04:40:05.633Z,7.60
2023-01-04T04:42:32.344Z,7.60
2023-01-04T04:44:58.964Z,7.60
2023-01-04T04:47:25.587Z,7.60
2023-01-04T04:49:52.234Z,7.60
2023-01-04T04:52:18.860Z,7.60
2023-01-04T04:54:45.425Z,7.60
2023-01-04T04:57:11.995Z,7.50
2023-01-04T04:59:38.629Z,7.50
2023-01-04T05:02:05.578Z,7.50
2023-01-04T05:04:32.257Z,7.50
2023-01-04T05:06:58.831Z,7.60
2023-01-04T05:09:25.448Z,7.50
2023-01-04T05:12:10.666Z,7.50
2023-01-04T05:14:37.205Z,7.60
2023-01-04T05:17:03.918Z,7.60
2023-01-04T05:19:30.698Z,7.60
2023-01-04T05:21:57.253Z,7.60
2023-01-04T05:24:23.973Z,7.60
2023-01-04T05:26:50.543Z,7.60
2023-01-04T05:29:35.752Z,7.60
2023-01-04T05:32:02.388Z,7.50
2023-01-04T05:34:29.056Z,7.50
2023-01-04T05:36:55.700Z,7.50
2023-01-04T05:39:22.261Z,7.40
2023-01-04T05:42:07.518Z,7.40
2023-01-04T05:44:34.104Z,7.50
2023-01-04T05:47:00.693Z,7.40
2023-01-04T05:49:27.305Z,7.40
2023-01-04T05:51:53.897Z,7.30
2023-01-04T05:54:21.685Z,7.20
2023-01-04T05:56:48.443Z,7.10
2023-01-04T05:59:16.042Z,7.10
2023-01-04T06:01:42.676Z,7.10
2023-01-04T06:04:09.386Z,7.10
2023-01-04T06:06:35.997Z,7.10
2023-01-04T06:09:02.762Z,7.10
2023-01-04T06:11:29.297Z,7.10
2023-01-04T06:13:55.849Z,7.10
2023-01-04T06:16:22.685Z,7.10
2023-01-04T06:18:49.339Z,7.10
2023-01-04T06:21:15.904Z,7.10
2023-01-04T06:23:42.482Z,7.00
2023-01-04T06:26:09.056Z,7.10
2023-01-04T06:28:40.663Z,7.10
2023-01-04T06:31:09.396Z,7.10
2023-01-04T06:33:36.567Z,7.20
2023-01-04T06:36:04.627Z,7.20
2023-01-04T06:38:32.211Z,7.20
2023-01-04T06:40:59.081Z,7.20
2023-01-04T06:43:25.868Z,7.20
2023-01-04T06:45:52.812Z,7.30
2023-01-04T06:48:19.715Z,7.30
2023-01-04T06:50:46.285Z,7.30
2023-01-04T06:53:13.062Z,7.30
2023-01-04T06:55:39.624Z,7.40
2023-01-04T06:58:06.233Z,7.30
2023-01-04T07:00:32.839Z,7.30
2023-01-04T07:03:14.389Z,7.30
2023-01-04T07:05:42.829Z,7.30
2023-01-04T07:08:09.869Z,7.30
2023-01-04T07:10:37.787Z,7.20
2023-01-04T07:13:04.705Z,7.20
2023-01-04T07:15:39.662Z,7.30
2023-01-04T07:18:08.266Z,7.30
2023-01-04T07:20:35.035Z,7.30
2023-01-04T07:23:01.614Z,7.20
2023-01-04T07:25:28.205Z,7.20
2023-01-04T07:27:55.695Z,7.20
2023-01-04T07:30:23.237Z,7.20
2023-01-04T07:32:51.778Z,7.10
2023-01-04T07:35:18.794Z,7.20
2023-01-04T07:37:45.777Z,7.30
2023-01-04T07:40:12.851Z,7.20
2023-01-04T07:42:39.523Z,7.10
2023-01-04T07:45:07.072Z,7.10
2023-01-04T07:47:33.728Z,7.10
2023-01-04T07:50:00.677Z,7.00
2023-01-04T07:52:28.082Z,7.10
2023-01-04T07:54:54.915Z,7.10
2023-01-04T07:57:21.486Z,7.00
2023-01-04T07:59:48.101Z,7.10
2023-01-04T08:02:14.814Z,7.20
2023-01-04T08:04:41.490Z,7.20
2023-01-04T08:07:08.188Z,7.20
2023-01-04T08:09:34.767Z,7.10
2023-01-04T08:12:01.338Z,7.10
2023-01-04T08:14:27.964Z,7.10
2023-01-04T08:16:54.549Z,7.10
2023-01-04T08:19:21.765Z,7.10
2023-01-04T08:21:48.751Z,7.10
2023-01-04T08:24:17.399Z,7.20
2023-01-04T08:26:45.050Z,7.20
2023-01-04T08:29:12.261Z,7.20
2023-01-04T08:31:40.087Z,7.10
2023-01-04T08:34:08.654Z,7.10
2023-01-04T08:36:44.588Z,7.10
2023-01-04T08:39:11.159Z,7.00
2023-01-04T08:42:04.810Z,7.10
2023-01-04T08:44:35.057Z,7.20
2023-01-04T08:47:01.831Z,7.20
2023-01-04T08:49:28.481Z,7.10
2023-01-04T08:51:55.135Z,7.10
2023-01-04T08:54:22.829Z,7.10
2023-01-04T08:56:49.558Z,7.10
2023-01-04T08:59:16.215Z,7.00
2023-01-04T09:01:42.977Z,7.00
2023-01-04T09:04:09.893Z,7.10
2023-01-04T09:06:38.163Z,7.00
2023-01-04T09:09:05.661Z,7.10
2023-01-04T09:11:32.561Z,7.00
2023-01-04T09:14:07.457Z,7.10
2023-01-04T09:16:35.939Z,7.00
2023-01-04T09:19:03.400Z,7.10
2023-01-04T09:21:30.089Z,7.10
2023-01-04T09:23:58.483Z,7.10
2023-01-04T09:26:25.100Z,7.20
2023-01-04T09:28:53.605Z,7.20
2023-01-04T09:31:22.551Z,7.30
2023-01-04T09:34:18.333Z,7.30
2023-01-04T09:36:35.701Z,7.40
2023-01-04T09:39:02.302Z,7.40
2023-01-04T09:41:31.368Z,7.40
2023-01-04T09:44:07.119Z,7.50
2023-01-04T09:46:39.728Z,7.50
2023-01-04T09:49:40.139Z,7.60
2023-01-04T09:52:09.667Z,7.70
2023-01-04T09:54:45.357Z,7.70
2023-01-04T09:57:23.791Z,7.70
2023-01-04T09:59:56.943Z,7.70
2023-01-04T10:02:34.145Z,7.70
2023-01-04T10:05:03.199Z,7.70
2023-01-04T10:07:33.139Z,7.70
2023-01-04T10:10:00.645Z,7.70
2023-01-04T10:12:39.353Z,7.80
2023-01-04T10:15:05.950Z,7.80
2023-01-04T10:21:29.572Z,7.90
2023-01-04T10:24:30.081Z,8.00
2023-01-04T10:27:12.262Z,8.00
2023-01-04T10:30:09.502Z,8.10
2023-01-04T10:32:42.645Z,8.20
2023-01-04T10:35:27.746Z,8.20
2023-01-04T10:37:58.718Z,8.30
2023-01-04T10:40:27.842Z,8.30
2023-01-04T10:43:00.232Z,8.40
2023-01-04T10:45:39.990Z,8.40
2023-01-04T10:48:27.901Z,8.40
2023-01-04T10:50:59.809Z,8.50
2023-01-04T10:53:33.208Z,8.50
2023-01-04T10:56:25.750Z,8.60
2023-01-04T10:59:00.313Z,8.60
2023-01-04T11:01:34.576Z,8.60
2023-01-04T11:04:27.532Z,8.70
2023-01-04T11:07:07.712Z,8.70
2023-01-04T11:09:59.502Z,8.80
2023-01-04T11:12:26.516Z,8.90
2023-01-04T11:14:53.919Z,8.90
2023-01-04T11:17:23.414Z,8.90
2023-01-04T11:19:50.243Z,9.00
2023-01-04T11:22:40.757Z,9.00
2023-01-04T11:25:35.812Z,9.00
2023-01-04T11:28:15.801Z,9.00
2023-01-04T11:31:05.162Z,9.00
2023-01-04T11:33:52.729Z,9.10
2023-01-04T11:36:34.447Z,9.20
2023-01-04T11:39:01.440Z,9.20
2023-01-04T11:41:28.141Z,9.20
2023-01-04T11:44:00.744Z,9.10
2023-01-04T11:46:29.045Z,9.20
2023-01-04T11:48:56.224Z,9.30
2023-01-04T11:51:31.632Z,9.30
2023-01-04T11:54:14.349Z,9.40
2023-01-04T11:57:10.704Z,9.40
2023-01-04T12:00:16.039Z,9.30
2023-01-04T12:05:31.890Z,9.30
2023-01-04T12:07:58.983Z,9.40
2023-01-04T12:10:27.994Z,9.40
2023-01-04T12:12:56.435Z,9.50
2023-01-04T12:15:48.074Z,9.50
2023-01-04T12:18:30.075Z,9.50
2023-01-04T12:20:57.526Z,9.50
2023-01-04T12:23:24.405Z,9.60
2023-01-04T12:25:52.435Z,9.60
2023-01-04T12:28:34.571Z,9.70
2023-01-04T12:31:20.429Z,9.70
2023-01-04T12:33:56.449Z,9.80
2023-01-04T12:36:43.305Z,9.80
2023-01-04T12:39:13.772Z,9.80
2023-01-04T12:41:40.385Z,9.90
2023-01-04T12:44:36.080Z,9.90
2023-01-04T12:47:23.078Z,9.90
2023-01-04T12:49:55.823Z,9.90
2023-01-04T12:52:34.717Z,9.90
2023-01-04T12:55:27.596Z,10.00
2023-01-04T12:57:54.202Z,10.00
2023-01-04T13:00:21.006Z,10.00
2023-01-04T13:03:08.925Z,10.10
2023-01-04T13:05:59.480Z,10.10
2023-01-04T13:08:27.314Z,10.10
2023-01-04T13:10:56.208Z,10.10
2023-01-04T13:13:38.560Z,10.10
2023-01-04T13:16:27.786Z,10.00
2023-01-04T13:18:57.474Z,10.00
2023-01-04T13:21:27.466Z,10.00
2023-01-04T13:24:00.544Z,10.00
2023-01-04T13:26:38.705Z,10.00
2023-01-04T13:29:09.184Z,10.10
2023-01-04T13:32:16.425Z,10.00
2023-01-04T13:34:49.773Z,10.00
2023-01-04T13:37:23.069Z,10.00
2023-01-04T13:40:03.034Z,10.00
2023-01-04T13:42:37.964Z,10.00
2023-01-04T13:45:21.053Z,10.00
2023-01-04T13:47:55.880Z,10.10
2023-01-04T13:50:49.485Z,10.10
2023-01-04T13:53:21.073Z,10.10
2023-01-04T13:55:58.066Z,10.10
2023-01-04T13:58:43.781Z,10.10
2023-01-04T14:01:23.516Z,10.20
2023-01-04T14:04:07.350Z,10.20
2023-01-04T14:06:49.352Z,10.20
2023-01-04T14:09:22.645Z,10.20
2023-01-04T14:12:05.621Z,10.20
2023-01-04T14:15:03.174Z,10.20
2023-01-04T14:17:49.548Z,10.20
2023-01-04T14:20:16.141Z,10.20
2023-01-04T14:22:45.756Z,10.30
2023-01-04T14:25:31.017Z,10.30
2023-01-04T14:28:17.640Z,10.30
2023-01-04T14:30:52.374Z,10.30
2023-01-04T14:33:26.173Z,10.30
2023-01-04T14:36:13.071Z,10.30
2023-01-04T14:38:47.915Z,10.30
2023-01-04T14:41:22.622Z,10.30
2023-01-04T14:44:14.165Z,10.30
2023-01-04T14:46:43.897Z,10.30
2023-01-04T14:49:10.548Z,10.30
2023-01-04T14:51:48.668Z,10.30
2023-01-04T14:54:24.032Z,10.30
2023-01-04T14:56:51.862Z,10.30
2023-01-04T14:59:18.583Z,10.20
2023-01-04T15:01:45.302Z,10.30
2023-01-04T15:04:12.173Z,10.30
2023-01-04T15:06:48.932Z,10.30
2023-01-04T15:09:15.877Z,10.30
2023-01-04T15:11:42.420Z,10.30
2023-01-04T15:14:09.366Z,10.30
2023-01-04T15:16:36.024Z,10.30
2023-01-04T15:19:02.691Z,10.30
2023-01-04T15:21:29.862Z,10.30
2023-01-04T15:23:58.492Z,10.30
2023-01-04T15:26:25.210Z,10.30
2023-01-04T15:28:51.830Z,10.30
2023-01-04T15:31:22.430Z,10.30
2023-01-04T15:33:52.730Z,10.30
2023-01-04T15:36:23.707Z,10.20
2023-01-04T15:38:55.268Z,10.20
2023-01-04T15:41:40.708Z,10.20
2023-01-04T15:44:11.327Z,10.20
2023-01-04T15:46:38.126Z,10.20
2023-01-04T15:49:04.875Z,10.20
2023-01-04T15:51:31.527Z,10.20
2023-01-04T15:53:58.160Z,10.20
2023-01-04T15:56:25.632Z,10.20
2023-01-04T15:58:54.565Z,10.20
2023-01-04T16:01:21.968Z,10.10
2023-01-04T16:03:53.424Z,10.10
2023-01-04T16:06:20.329Z,10.00
2023-01-04T16:08:48.751Z,10.10
2023-01-04T16:11:21.513Z,10.00
2023-01-04T16:13:50.215Z,10.00
2023-01-04T16:16:18.310Z,10.00
2023-01-04T16:18:47.328Z,10.10
2023-01-04T16:21:15.566Z,10.00
2023-01-04T16:23:42.206Z,10.10
2023-01-04T16:26:11.777Z,10.10
2023-01-04T16:28:39.125Z,10.10
2023-01-04T16:31:06.880Z,10.00
2023-01-04T16:33:35.337Z,10.00
2023-01-04T16:36:04.914Z,10.00
2023-01-04T16:38:35.854Z,9.90
2023-01-04T16:41:04.026Z,9.90
2023-01-04T16:43:33.615Z,9.90
2023-01-04T16:46:32.860Z,9.90
2023-01-04T16:49:05.756Z,9.80
2023-01-04T16:51:34.711Z,9.80
2023-01-04T16:54:06.926Z,9.80
2023-01-04T16:56:34.119Z,9.70
2023-01-04T16:59:02.131Z,9.70
2023-01-04T17:01:31.942Z,9.70
2023-01-04T17:04:00.830Z,9.70
2023-01-04T17:06:30.260Z,9.70
2023-01-04T17:08:58.117Z,9.70
2023-01-04T17:14:19.858Z,9.70
2023-01-04T17:16:46.470Z,9.70
2023-01-04T17:19:13.122Z,9.90
2023-01-04T17:21:39.857Z,10.00
2023-01-04T17:24:06.848Z,10.00
2023-01-04T17:26:33.663Z,9.90
2023-01-04T17:29:01.961Z,10.00
2023-01-04T17:31:31.957Z,10.10
2023-01-04T17:33:59.053Z,10.10
2023-01-04T17:36:26.025Z,10.00
2023-01-04T17:38:52.584Z,10.00
2023-01-04T17:41:24.145Z,10.00
2023-01-04T17:43:54.075Z,10.00
2023-01-04T17:46:23.765Z,9.90
2023-01-04T17:49:20.658Z,9.90
2023-01-04T17:51:39.600Z,10.00
2023-01-04T17:54:07.382Z,9.90
2023-01-04T17:56:34.231Z,9.80
2023-01-04T17:59:02.741Z,9.70
2023-01-04T18:01:30.377Z,9.70
2023-01-04T18:03:59.443Z,9.70
2023-01-04T18:06:29.156Z,9.70
2023-01-04T18:08:57.257Z,9.70
2023-01-04T18:11:24.340Z,9.80
2023-01-04T18:13:52.415Z,9.80
2023-01-04T18:16:24.693Z,9.90
2023-01-04T18:18:53.033Z,9.90
2023-01-04T18:21:29.634Z,9.90
2023-01-04T18:24:35.377Z,9.80
2023-01-04T18:29:35.275Z,9.90
2023-01-04T18:32:01.987Z,9.80
2023-01-04T18:34:28.833Z,9.80
2023-01-04T18:36:55.479Z,9.80
2023-01-04T18:39:22.133Z,9.80
2023-01-04T18:41:48.737Z,9.90
2023-01-04T18:44:32.703Z,9.90
2023-01-04T18:47:00.860Z,10.00
2023-01-04T18:49:27.633Z,10.00
2023-01-04T18:51:54.207Z,10.10
2023-01-04T18:54:21.363Z,10.10
2023-01-04T18:56:48.054Z,10.20
2023-01-04T18:59:17.191Z,10.30
2023-01-04T19:01:45.207Z,10.30
2023-01-04T19:04:12.905Z,10.30
2023-01-04T19:06:40.851Z,10.30
2023-01-04T19:09:08.213Z,10.30
2023-01-04T19:11:35.813Z,10.30
2023-01-04T19:14:03.620Z,10.40
2023-01-04T19:16:31.452Z,10.40
2023-01-04T19:19:01.711Z,10.40
2023-01-04T19:21:29.001Z,10.50
2023-01-04T19:23:56.073Z,10.50
2023-01-04T19:26:23.631Z,10.50
2023-01-04T19:28:50.958Z,10.60
2023-01-04T19:31:19.525Z,10.60
2023-01-04T19:33:46.778Z,10.70
2023-01-04T19:36:15.216Z,10.70
2023-01-04T19:38:41.858Z,10.70
2023-01-04T19:41:14.485Z,10.70
2023-01-04T19:43:41.057Z,10.70
2023-01-04T19:46:14.125Z,10.70
2023-01-04T19:48:41.119Z,10.70
2023-01-04T19:51:15.849Z,10.70
2023-01-04T19:53:44.063Z,10.80
2023-01-04T19:56:12.574Z,10.80
2023-01-04T19:58:39.285Z,10.80
2023-01-04T20:01:06.369Z,10.70
2023-01-04T20:03:33.473Z,10.80
2023-01-04T20:06:04.596Z,10.80
2023-01-04T20:08:32.103Z,10.80
2023-01-04T20:11:00.361Z,10.80
2023-01-04T20:13:27.931Z,10.80
2023-01-04T20:15:54.696Z,10.80
2023-01-04T20:18:22.024Z,10.80
2023-01-04T20:20:48.728Z,10.80
2023-01-04T20:23:16.135Z,10.80
2023-01-04T20:25:45.170Z,10.70
2023-01-04T20:28:12.575Z,10.80
2023-01-04T20:30:39.624Z,10.80
2023-01-04T20:33:07.313Z,10.80
2023-01-04T20:35:38.349Z,10.80
2023-01-04T20:38:04.957Z,10.70
2023-01-04T20:40:31.724Z,10.70
2023-01-04T20:43:16.824Z,10.70
2023-01-04T20:45:45.186Z,10.70
2023-01-04T20:48:13.001Z,10.70
2023-01-04T20:50:39.969Z,10.70
2023-01-04T20:53:06.951Z,10.70
2023-01-04T20:55:40.815Z,10.80
2023-01-04T20:58:11.282Z,10.80
2023-01-04T21:00:38.932Z,10.70
2023-01-04T21:03:07.547Z,10.70
2023-01-04T21:05:40.054Z,10.70
2023-01-04T21:08:06.723Z,10.70
2023-01-04T21:10:34.436Z,10.70
2023-01-04T21:13:01.211Z,10.70
2023-01-04T21:15:27.990Z,10.70
2023-01-04T21:17:54.777Z,10.70
2023-01-04T21:20:24.691Z,10.70
2023-01-04T21:22:51.347Z,10.70
2023-01-04T21:25:17.940Z,10.70
2023-01-04T21:27:44.616Z,10.70
2023-01-04T21:30:12.041Z,10.70
2023-01-04T21:32:38.738Z,10.70
2023-01-04T21:35:06.247Z,10.80
2023-01-04T21:37:33.023Z,10.80
2023-01-04T21:39:59.665Z,10.80
2023-01-04T21:42:26.362Z,10.80
2023-01-04T21:44:53.180Z,10.80
2023-01-04T21:47:19.773Z,10.80
2023-01-04T21:49:46.366Z,10.80
2023-01-04T21:52:13.145Z,10.80
2023-01-04T21:54:39.720Z,10.70
2023-01-04T21:57:09.367Z,10.80
2023-01-04T21:59:36.321Z,10.80
2023-01-04T22:02:03.410Z,10.80
2023-01-04T22:04:30.541Z,10.80
2023-01-04T22:06:57.327Z,10.80
2023-01-04T22:09:24.361Z,10.70
2023-01-04T22:11:51.114Z,10.80
2023-01-04T22:14:18.667Z,10.70
2023-01-04T22:16:45.340Z,10.70
2023-01-04T22:19:13.144Z,10.80
2023-01-04T22:21:39.920Z,10.70
2023-01-04T22:24:07.658Z,10.70
2023-01-04T22:26:34.329Z,10.70
2023-01-04T22:29:01.280Z,10.70
2023-01-04T22:31:28.045Z,10.70
2023-01-04T22:33:54.907Z,10.70
2023-01-04T22:36:23.671Z,10.70
2023-01-04T22:38:55.629Z,10.60
2023-01-04T22:41:24.269Z,10.60
2023-01-04T22:44:05.449Z,10.60
2023-01-04T22:46:33.979Z,10.60
2023-01-04T22:49:01.389Z,10.60
2023-01-04T22:51:28.828Z,10.60
2023-01-04T22:54:00.805Z,10.60
2023-01-04T22:56:28.244Z,10.60
2023-01-04T22:58:56.502Z,10.60
2023-01-04T23:01:26.154Z,10.60
2023-01-04T23:03:53.346Z,10.60
2023-01-04T23:06:21.577Z,10.60
2023-01-04T23:08:48.909Z,10.50
2023-01-04T23:11:17.826Z,10.50
2023-01-04T23:13:44.967Z,10.50
2023-01-04T23:16:14.893Z,10.50
2023-01-04T23:18:41.752Z,10.50
2023-01-04T23:21:09.371Z,10.40
2023-01-04T23:23:36.332Z,10.40
2023-01-04T23:26:08.442Z,10.40
2023-01-04T23:28:36.933Z,10.40
2023-01-04T23:31:05.912Z,10.30
2023-01-04T23:33:36.376Z,10.30
2023-01-04T23:36:10.715Z,10.40
2023-01-04T23:38:38.273Z,10.40
2023-01-04T23:41:05.913Z,10.30
2023-01-04T23:43:34.399Z,10.30
2023-01-04T23:46:12.688Z,10.30
2023-01-04T23:48:40.165Z,10.30
2023-01-04T23:51:07.216Z,10.40
2023-01-04T23:53:33.926Z,10.40
2023-01-04T23:56:13.893Z,10.30
2023-01-04T23:58:40.616Z,10.30
